createdAt,value
2023-04-02T00:03:42.607Z,17.30
2023-04-02T00:08:46.290Z,17.89
2023-04-02T00:13:49.523Z,16.44
2023-04-02T00:18:56.532Z,15.55
2023-04-02T00:24:01.476Z,14.94
2023-04-02T00:29:07.342Z,14.47
2023-04-02T00:34:18.640Z,14.08
2023-04-02T00:39:27.425Z,13.74
2023-04-02T00:44:33.224Z,14.48
2023-04-02T00:49:39.950Z,17.10
2023-04-02T00:54:51.169Z,17.59
2023-04-02T00:59:58.202Z,16.12
2023-04-02T01:05:23.712Z,15.27
2023-04-02T01:10:54.315Z,14.64
2023-04-02T01:16:22.119Z,14.16
2023-04-02T01:21:33.945Z,13.75
2023-04-02T01:27:02.422Z,13.44
2023-04-02T01:32:11.962Z,14.33
2023-04-02T01:37:39.433Z,16.99
2023-04-02T01:43:16.032Z,17.18
2023-04-02T01:48:24.930Z,15.67
2023-04-02T01:53:31.022Z,14.90
2023-04-02T01:58:34.805Z,14.37
2023-04-02T02:03:42.873Z,13.95
2023-04-02T02:08:59.473Z,13.60
2023-04-02T02:14:17.812Z,13.30
2023-04-02T02:19:38.432Z,13.04
2023-04-02T02:24:42.696Z,13.93
2023-04-02T02:29:49.618Z,16.56
2023-04-02T02:35:02.351Z,16.82
2023-04-02T02:40:13.260Z,15.47
2023-04-02T02:45:22.982Z,14.69
2023-04-02T02:50:32.844Z,14.14
2023-04-02T02:55:38.831Z,13.71
2023-04-02T03:00:50.486Z,13.35
2023-04-02T03:05:58.070Z,13.06
2023-04-02T03:11:02.339Z,12.81
2023-04-02T03:16:12.132Z,13.52
2023-04-02T03:21:29.275Z,16.24
2023-04-02T03:26:49.463Z,16.96
2023-04-02T03:32:12.283Z,15.51
2023-04-02T03:37:32.034Z,14.65
2023-04-02T03:43:00.196Z,14.08
2023-04-02T03:48:24.278Z,13.61
2023-04-02T03:53:29.851Z,13.23
2023-04-02T03:58:47.246Z,12.93
2023-04-02T04:03:55.640Z,12.69
2023-04-02T04:09:01.295Z,12.49
2023-04-02T04:14:18.439Z,13.36
2023-04-02T04:19:24.905Z,16.11
2023-04-02T04:24:28.616Z,16.76
2023-04-02T04:29:53.710Z,15.37
2023-04-02T04:35:21.742Z,14.50
2023-04-02T04:40:45.072Z,13.91
2023-04-02T04:46:00.264Z,13.46
2023-04-02T04:51:08.917Z,13.09
2023-04-02T04:56:19.329Z,12.81
2023-04-02T05:01:39.155Z,12.57
2023-04-02T05:06:55.559Z,13.38
2023-04-02T05:12:16.376Z,16.09
2023-04-02T05:17:27.571Z,16.57
2023-04-02T05:22:44.325Z,15.24
2023-04-02T05:34:05.300Z,13.82
2023-04-02T05:39:11.265Z,13.41
2023-04-02T05:44:27.236Z,13.05
2023-04-02T05:49:58.649Z,12.77
2023-04-02T05:55:11.606Z,12.54
2023-04-02T06:00:43.691Z,13.34
2023-04-02T06:05:48.333Z,16.17
2023-04-02T06:10:55.572Z,16.61
2023-04-02T06:16:01.720Z,15.26
2023-04-02T06:21:14.487Z,14.48
2023-04-02T06:26:34.057Z,13.94
2023-04-02T06:31:57.482Z,13.53
2023-04-02T06:37:12.067Z,13.19
2023-04-02T06:42:21.958Z,12.92
2023-04-02T06:47:42.727Z,13.62
2023-04-02T06:52:56.701Z,16.17
2023-04-02T06:58:00.658Z,16.77
2023-04-02T07:03:13.716Z,15.45
2023-04-02T07:08:17.244Z,14.64
2023-04-02T07:13:22.817Z,14.10
2023-04-02T07:18:31.225Z,13.66
2023-04-02T07:23:36.292Z,13.35
2023-04-02T07:28:39.593Z,13.12
2023-04-02T07:33:42.861Z,12.91
2023-04-02T07:38:46.572Z,12.74
2023-04-02T07:43:49.792Z,13.58
2023-04-02T07:48:53.042Z,16.30
2023-04-02T07:53:58.616Z,16.47
2023-04-02T07:59:02.225Z,15.23
2023-04-02T08:04:08.116Z,14.54
2023-04-02T08:09:11.628Z,14.07
2023-04-02T08:14:14.997Z,13.65
2023-04-02T08:19:19.173Z,13.29
2023-04-02T08:24:22.956Z,13.02
2023-04-02T08:29:26.196Z,12.79
2023-04-02T08:34:32.401Z,12.63
2023-04-02T08:39:35.667Z,13.47
2023-04-02T08:44:41.992Z,15.80
2023-04-02T08:49:53.882Z,15.05
2023-04-02T08:54:58.420Z,13.83
2023-04-02T09:00:15.982Z,13.10
2023-04-02T09:05:27.111Z,12.52
2023-04-02T09:10:42.721Z,12.07
2023-04-02T09:15:46.150Z,11.74
2023-04-02T09:20:50.430Z,11.49
2023-04-02T09:26:04.127Z,11.27
2023-04-02T09:31:41.045Z,12.23
2023-04-02T09:36:44.906Z,15.10
2023-04-02T09:41:58.990Z,15.51
2023-04-02T09:47:26.522Z,13.95
2023-04-02T09:52:37.381Z,13.05
2023-04-02T09:57:40.700Z,12.40
2023-04-02T10:02:46.943Z,11.88
2023-04-02T10:07:55.933Z,11.49
2023-04-02T10:13:07.102Z,11.18
2023-04-02T10:18:21.910Z,11.96
2023-04-02T10:23:29.526Z,14.83
2023-04-02T10:28:57.808Z,15.02
2023-04-02T10:34:06.535Z,13.52
2023-04-02T10:39:15.109Z,12.76
2023-04-02T10:44:30.005Z,12.20
2023-04-02T10:49:56.076Z,11.74
2023-04-02T10:55:21.052Z,11.26
2023-04-02T11:00:38.349Z,10.90
2023-04-02T11:05:53.653Z,10.61
2023-04-02T11:11:31.149Z,10.41
2023-04-02T11:16:36.159Z,10.24
2023-04-02T11:21:57.875Z,10.12
2023-04-02T11:27:18.995Z,9.91
2023-04-02T11:32:24.330Z,9.76
2023-04-02T11:37:34.992Z,10.72
2023-04-02T11:42:45.584Z,13.77
2023-04-02T11:48:13.690Z,14.64
2023-04-02T11:53:21.484Z,13.01
2023-04-02T11:58:33.549Z,12.13
2023-04-02T12:04:03.896Z,11.59
2023-04-02T12:09:23.911Z,11.05
2023-04-02T12:14:35.727Z,10.57
2023-04-02T12:19:39.686Z,10.28
2023-04-02T12:24:43.204Z,10.08
2023-04-02T12:29:47.274Z,9.88
2023-04-02T12:34:52.238Z,9.68
2023-04-02T12:40:16.101Z,9.58
2023-04-02T12:45:33.431Z,10.71
2023-04-02T12:50:36.857Z,13.70
2023-04-02T12:55:48.256Z,13.55
2023-04-02T13:00:51.574Z,12.33
2023-04-02T13:05:57.574Z,11.67
2023-04-02T13:11:02.167Z,11.28
2023-04-02T13:16:26.404Z,10.95
2023-04-02T13:21:32.239Z,10.63
2023-04-02T13:26:35.449Z,10.30
2023-04-02T13:31:38.712Z,10.07
2023-04-02T13:36:41.880Z,9.93
2023-04-02T13:41:51.618Z,9.86
2023-04-02T13:46:55.900Z,10.87
2023-04-02T13:52:03.372Z,13.84
2023-04-02T13:57:07.658Z,14.50
2023-04-02T14:02:24.664Z,13.15
2023-04-02T14:07:34.170Z,12.20
2023-04-02T14:13:10.775Z,11.46
2023-04-02T14:18:22.736Z,10.78
2023-04-02T14:23:38.573Z,10.24
2023-04-02T14:28:57.799Z,9.97
2023-04-02T14:34:41.809Z,9.74
2023-04-02T14:39:47.641Z,9.50
2023-04-02T14:44:58.273Z,9.33
2023-04-02T14:50:13.888Z,9.30
2023-04-02T14:55:42.625Z,9.26
2023-04-02T15:00:56.214Z,10.38
2023-04-02T15:06:04.863Z,13.39
2023-04-02T15:11:16.505Z,13.34
2023-04-02T15:16:23.305Z,11.98
2023-04-02T15:21:29.551Z,11.18
2023-04-02T15:26:49.885Z,10.65
2023-04-02T15:31:58.299Z,10.24
2023-04-02T15:37:29.927Z,9.88
2023-04-02T15:43:19.852Z,9.62
2023-04-02T15:48:47.135Z,9.39
2023-04-02T15:54:33.874Z,9.22
2023-04-02T15:59:52.010Z,9.09
2023-04-02T16:05:01.275Z,8.98
2023-04-02T16:10:37.925Z,8.78
2023-04-02T16:15:51.061Z,9.72
2023-04-02T16:20:57.309Z,12.64
2023-04-02T16:26:13.308Z,12.76
2023-04-02T16:31:40.636Z,11.33
2023-04-02T16:36:45.328Z,10.65
2023-04-02T16:42:15.778Z,10.18
2023-04-02T16:48:10.251Z,9.79
2023-04-02T16:53:17.526Z,9.44
2023-04-02T16:58:32.014Z,9.15
2023-04-02T17:04:02.993Z,8.93
2023-04-02T17:09:26.375Z,8.76
2023-04-02T17:14:41.209Z,8.63
2023-04-02T17:19:45.022Z,8.54
2023-04-02T17:24:55.021Z,8.48
2023-04-02T17:30:12.705Z,8.44
2023-04-02T17:35:44.043Z,8.39
2023-04-02T17:41:02.598Z,8.29
2023-04-02T17:46:18.222Z,8.26
2023-04-02T17:51:45.575Z,8.17
2023-04-02T17:57:29.945Z,8.09
2023-04-02T18:02:57.525Z,8.07
2023-04-02T18:08:27.632Z,8.02
2023-04-02T18:13:36.430Z,9.41
2023-04-02T18:18:48.722Z,12.33
2023-04-02T18:24:35.240Z,11.56
2023-04-02T18:29:50.757Z,10.33
2023-04-02T18:34:57.191Z,9.73
2023-04-02T18:40:39.413Z,9.32
2023-04-02T18:46:00.551Z,9.00
2023-04-02T18:51:06.517Z,8.81
2023-04-02T18:56:16.375Z,8.64
2023-04-02T19:07:15.684Z,8.40
2023-04-02T19:12:22.396Z,8.29
2023-04-02T19:24:15.914Z,8.14
2023-04-02T19:29:39.720Z,8.09
2023-04-02T19:35:03.467Z,8.05
2023-04-02T19:40:06.831Z,8.02
2023-04-02T19:45:36.023Z,7.94
2023-04-02T19:50:39.941Z,9.06
2023-04-02T19:55:44.159Z,12.10
2023-04-02T20:00:47.593Z,11.78
2023-04-02T20:05:51.371Z,10.58
2023-04-02T20:11:24.087Z,9.95
2023-04-02T20:16:27.703Z,9.42
2023-04-02T20:21:38.430Z,9.02
2023-04-02T20:26:41.844Z,8.66
2023-04-02T20:31:45.365Z,8.39
2023-04-02T20:36:48.672Z,8.17
2023-04-02T20:41:51.973Z,7.99
2023-04-02T20:47:12.492Z,7.85
2023-04-02T20:52:16.069Z,7.70
2023-04-02T20:57:22.165Z,7.60
2023-04-02T21:02:25.680Z,7.50
2023-04-02T21:07:29.263Z,8.44
2023-04-02T21:12:32.808Z,11.61
2023-04-02T21:17:36.190Z,12.50
2023-04-02T21:22:39.484Z,11.01
2023-04-02T21:27:42.826Z,10.06
2023-04-02T21:32:46.138Z,9.40
2023-04-02T21:37:49.394Z,8.88
2023-04-02T21:42:54.884Z,8.45
2023-04-02T21:47:58.360Z,8.12
2023-04-02T21:53:01.822Z,7.85
2023-04-02T21:58:05.492Z,7.62
2023-04-02T22:03:10.164Z,7.46
2023-04-02T22:08:15.168Z,7.34
2023-04-02T22:13:19.187Z,7.25
2023-04-02T22:18:22.628Z,8.21
2023-04-02T22:23:27.916Z,11.33
2023-04-02T22:28:31.729Z,12.23
2023-04-02T22:33:35.894Z,10.72
2023-04-02T22:38:54.759Z,9.78
2023-04-02T22:43:59.832Z,9.11
2023-04-02T22:49:03.671Z,8.56
2023-04-02T22:54:07.177Z,8.17
2023-04-02T22:59:10.611Z,7.89
2023-04-02T23:04:14.050Z,7.65
2023-04-02T23:09:17.539Z,7.46
2023-04-02T23:14:21.586Z,7.32
2023-04-02T23:19:24.950Z,7.24
2023-04-02T23:24:28.271Z,8.16
2023-04-02T23:29:31.600Z,11.20
2023-04-02T23:34:34.907Z,12.09
2023-04-02T23:39:38.603Z,10.52
2023-04-02T23:44:41.947Z,9.56
2023-04-02T23:49:48.026Z,8.92
2023-04-02T23:54:51.413Z,8.30
2023-04-02T23:59:54.795Z,7.87
